Terminal Aerodrome Forecast
Issued by NWS Twin Cities, MN

Home | Current Version | Previous Version | Text Only | Print | Product List | Glossary Off
Versions: 1 2 3 4 5 6 7 8 9 10 11 12 13 14 15 16 17 18 19 20 21 22 23 24 25 26 27 28 29 30

346
FTUS43 KMPX 271120
TAFMSP
TAF
KMSP 271120Z 2712/2818 08015G22KT P6SM SCT050 BKN120
     FM272200 08019G28KT P6SM -RA BKN035 OVC080
      TEMPO 2801/2805 3SM RA BR OVC020
     FM280500 06014G21KT P6SM -RA OVC030
     FM281000 06012KT 5SM -RA BR SCT015 OVC025
     FM281500 06010KT P6SM SCT015 OVC040=

USA.gov is the U.S. government's official web portal to all federal, state and local government web resources and services.